»·PEaware :: N172SL KSBA-KVNY

N172SL :: KSBA-KVNY

FLIGHT INFORMATION

Flight Status: Arrived
Operator: Privately registered:
United States
More flights under this callsign
Pilot: Steve L. (17268)
Aircraft: CESSNA 172 SKYHAWK
(C172)
More flights by this aircraft type
Origin: KSBA Santa Barbara Mun
United States
Destination: KVNY Van Nuys
United States
More flights between these airports :: More routes between these airports
Route: +
File this flight plan on PilotEdge
Remarks: FF
Altitude:
(Current/Filed)
5,500ft
Speed:
(Current/Filed)
0kts
Departed: 04-Jan-18 09:10 AM
Arrived: 04-Jan-18 09:52 AM
Distance/Time
Traveled:
68nm/0:42
Distance/Time
To Go:
Arrived

Flight Plot

Page will automatically refresh every two minutes.


Map Options




Map Legend


Flown Route
Filed Route
Departure Airport
Arrival Airport
Navaid (VOR, NDB)
Fix

Horizontal Profiles

Position Reports

Time Latitude Longitude Heading Altitude Ground
Speed
04-Jan-18 09:09 34.432563 -119.835038 140 14ft 0kts
04-Jan-18 09:10 34.432563 -119.835038 140 14ft 0kts
04-Jan-18 09:11 34.432526 -119.835007 154 14ft 4kts
04-Jan-18 09:12 34.430935 -119.839082 250 14ft 15kts
04-Jan-18 09:13 34.430794 -119.839516 251 14ft 0kts
04-Jan-18 09:14 34.430794 -119.839516 251 14ft 0kts
04-Jan-18 09:15 34.430580 -119.840055 234 14ft 0kts
04-Jan-18 09:16 34.423968 -119.838236 165 68ft 80kts
04-Jan-18 09:17 34.400029 -119.832332 168 866ft 90kts
04-Jan-18 09:18 34.375267 -119.824721 166 1433ft 100kts
04-Jan-18 09:19 34.366049 -119.798755 111 2279ft 87kts
04-Jan-18 09:20 34.359961 -119.769254 100 2987ft 93kts
04-Jan-18 09:21 34.356399 -119.737193 68 3452ft 112kts
04-Jan-18 09:22 34.384595 -119.715996 38 3388ft 124kts
04-Jan-18 09:23 34.395309 -119.680257 86 3390ft 119kts
04-Jan-18 09:24 34.397967 -119.640667 87 3392ft 118kts
04-Jan-18 09:25 34.396486 -119.601140 94 3399ft 117kts
04-Jan-18 09:26 34.394325 -119.561667 93 3398ft 117kts
04-Jan-18 09:27 34.393544 -119.522319 90 3398ft 119kts
04-Jan-18 09:28 34.393206 -119.482217 90 3398ft 119kts
04-Jan-18 09:29 34.392878 -119.442066 90 3398ft 119kts
04-Jan-18 09:30 34.391812 -119.401956 92 3398ft 119kts
04-Jan-18 09:31 34.390310 -119.360815 92 3279ft 121kts
04-Jan-18 09:32 34.388752 -119.321932 95 3279ft 119kts
04-Jan-18 09:33 34.385090 -119.281988 96 3279ft 119kts
04-Jan-18 09:34 34.381829 -119.241905 95 3279ft 119kts
04-Jan-18 09:35 34.378980 -119.201950 94 3279ft 119kts
04-Jan-18 09:36 34.376243 -119.162074 94 3279ft 119kts
04-Jan-18 09:37 34.373769 -119.122131 91 3279ft 119kts
04-Jan-18 09:38 34.372139 -119.081876 93 3279ft 119kts
04-Jan-18 09:39 34.369446 -119.041758 95 3279ft 119kts
04-Jan-18 09:40 34.366274 -119.001641 95 3279ft 119kts
04-Jan-18 09:41 34.363243 -118.961634 95 3279ft 119kts
04-Jan-18 09:42 34.360200 -118.921374 95 3270ft 119kts
04-Jan-18 09:43 34.356752 -118.881345 107 3269ft 119kts
04-Jan-18 09:44 34.343469 -118.844548 114 3270ft 119kts
04-Jan-18 09:45 34.329752 -118.807784 114 3270ft 119kts
04-Jan-18 09:46 34.316031 -118.771072 114 3270ft 119kts
04-Jan-18 09:47 34.302113 -118.733838 114 3270ft 124kts
04-Jan-18 09:48 34.287997 -118.696198 114 3270ft 121kts
04-Jan-18 09:49 34.275859 -118.664055 114 2744ft 88kts
04-Jan-18 09:50 34.271113 -118.638746 72 2227ft 68kts
04-Jan-18 09:51 34.273215 -118.609233 86 1942ft 90kts
04-Jan-18 09:52 34.271174 -118.579994 95 1559ft 83kts
04-Jan-18 09:53 34.269856 -118.550023 91 1680ft 102kts
04-Jan-18 09:54 34.268070 -118.513350 93 1647ft 108kts
04-Jan-18 09:55 34.258405 -118.491887 197 1460ft 89kts
04-Jan-18 09:56 34.237196 -118.492945 175 1298ft 75kts
04-Jan-18 09:57 34.216413 -118.490961 175 850ft 75kts
04-Jan-18 09:58 34.210132 -118.491319 255 778ft 0kts
04-Jan-18 09:59 34.210132 -118.491319 255 778ft 0kts
04-Jan-18 10:00 34.208237 -118.491830 88 775ft 0kts

Navigation Log

Ident Type
1. KSBA Airport
2. KVNY Airport